createdAt,value
2016-05-20T00:00:39.988Z,0
2016-05-20T00:01:40.038Z,0
2016-05-20T00:02:40.025Z,0
2016-05-20T00:03:39.903Z,0
2016-05-20T00:04:39.936Z,0
2016-05-20T00:05:40.095Z,0
2016-05-20T00:06:40.129Z,0
2016-05-20T00:07:40.132Z,0
2016-05-20T00:08:40.150Z,0
2016-05-20T00:09:40.794Z,0
2016-05-20T00:10:40.203Z,0
2016-05-20T00:11:40.049Z,0
2016-05-20T00:12:40.223Z,0
2016-05-20T00:13:40.241Z,0
2016-05-20T00:14:40.245Z,0
2016-05-20T00:15:40.294Z,0
2016-05-20T00:16:40.297Z,0
2016-05-20T00:17:40.300Z,0
2016-05-20T00:18:40.333Z,0
2016-05-20T00:19:40.336Z,0
2016-05-20T00:20:40.355Z,0
2016-05-20T00:21:40.388Z,0
2016-05-20T00:22:40.250Z,0
2016-05-20T00:23:40.410Z,0
2016-05-20T00:24:40.443Z,0
2016-05-20T00:25:40.446Z,0
2016-05-20T00:26:40.448Z,0
2016-05-20T00:27:40.545Z,0
2016-05-20T00:28:40.345Z,0
2016-05-20T00:29:40.504Z,0
2016-05-20T00:30:40.538Z,0
2016-05-20T00:31:40.556Z,0
2016-05-20T00:32:40.402Z,0
2016-05-20T00:33:40.577Z,0
2016-05-20T00:34:40.612Z,0
2016-05-20T00:35:40.614Z,0
2016-05-20T00:36:40.632Z,0
2016-05-20T00:37:40.634Z,0
2016-05-20T00:38:40.668Z,0
2016-05-20T00:39:40.859Z,0
2016-05-20T00:40:40.720Z,0
2016-05-20T00:41:40.755Z,0
2016-05-20T00:42:40.757Z,0
2016-05-20T00:43:40.744Z,0
2016-05-20T00:44:40.639Z,0
2016-05-20T00:45:40.797Z,0
2016-05-20T00:46:40.814Z,0
2016-05-20T00:47:40.661Z,0
2016-05-20T00:48:40.836Z,0
2016-05-20T00:49:40.714Z,0
2016-05-20T00:50:40.857Z,0
2016-05-20T00:51:40.891Z,0
2016-05-20T00:52:40.925Z,0
2016-05-20T00:53:40.927Z,0
2016-05-20T00:54:40.649Z,0
2016-05-20T00:55:40.964Z,0
2016-05-20T00:56:40.826Z,0
2016-05-20T00:57:40.829Z,0
2016-05-20T00:58:41.019Z,0
2016-05-20T00:59:41.022Z,0
2016-05-20T01:00:41.040Z,0
2016-05-20T01:01:41.074Z,0
2016-05-20T01:02:41.093Z,0
2016-05-20T01:03:40.955Z,0
2016-05-20T01:04:41.113Z,0
2016-05-20T01:05:41.085Z,0
2016-05-20T01:06:41.212Z,0
2016-05-20T01:07:41.231Z,0
2016-05-20T01:08:41.078Z,0
2016-05-20T01:09:41.376Z,0
2016-05-20T01:10:41.192Z,0
2016-05-20T01:11:41.256Z,0
2016-05-20T01:12:41.103Z,0
2016-05-20T01:13:41.263Z,0
2016-05-20T01:14:41.264Z,0
2016-05-20T01:15:41.330Z,0
2016-05-20T01:16:41.333Z,0
2016-05-20T01:17:41.336Z,0
2016-05-20T01:18:41.370Z,0
2016-05-20T01:19:41.403Z,0
2016-05-20T01:20:41.078Z,0
2016-05-20T01:21:41.408Z,0
2016-05-20T01:22:41.458Z,0
2016-05-20T01:23:41.274Z,0
2016-05-20T01:24:41.463Z,0
2016-05-20T01:25:41.310Z,0
2016-05-20T01:26:41.516Z,0
2016-05-20T01:27:41.504Z,0
2016-05-20T01:28:41.522Z,0
2016-05-20T01:29:41.227Z,0
2016-05-20T01:30:41.387Z,0
2016-05-20T01:31:41.577Z,0
2016-05-20T01:32:41.626Z,0
2016-05-20T01:33:41.645Z,0
2016-05-20T01:34:41.616Z,0
2016-05-20T01:35:41.321Z,0
2016-05-20T01:36:41.653Z,0
2016-05-20T01:37:41.687Z,0
2016-05-20T01:38:41.533Z,0
2016-05-20T01:39:41.551Z,0
2016-05-20T01:40:41.725Z,0
2016-05-20T01:41:41.745Z,0
2016-05-20T01:42:41.748Z,0
2016-05-20T01:43:41.624Z,0
2016-05-20T01:44:41.643Z,0
2016-05-20T01:45:41.817Z,0
2016-05-20T01:46:41.836Z,0
2016-05-20T01:47:41.839Z,0
2016-05-20T01:48:41.716Z,0
2016-05-20T01:49:41.891Z,0
2016-05-20T01:50:41.908Z,0
2016-05-20T01:51:41.911Z,0
2016-05-20T01:52:41.946Z,0
2016-05-20T01:53:41.963Z,0
2016-05-20T01:54:41.654Z,0
2016-05-20T01:55:41.844Z,0
2016-05-20T01:56:42.003Z,0
2016-05-20T01:57:42.005Z,0
2016-05-20T01:58:41.883Z,0
2016-05-20T01:59:42.043Z,0
2016-05-20T02:00:42.061Z,0
2016-05-20T02:01:41.907Z,0
2016-05-20T02:02:42.098Z,0
2016-05-20T02:03:41.959Z,0
2016-05-20T02:04:42.134Z,0
2016-05-20T02:05:41.981Z,0
2016-05-20T02:06:42.014Z,0
2016-05-20T02:07:42.189Z,0
2016-05-20T02:08:42.192Z,0
2016-05-20T02:09:42.367Z,0
2016-05-20T02:10:42.245Z,0
2016-05-20T02:11:42.248Z,0
2016-05-20T02:12:42.125Z,0
2016-05-20T02:13:42.143Z,0
2016-05-20T02:14:42.301Z,0
2016-05-20T02:15:42.303Z,0
2016-05-20T02:16:42.339Z,0
2016-05-20T02:17:42.356Z,0
2016-05-20T02:18:42.047Z,0
2016-05-20T02:19:42.378Z,0
2016-05-20T02:20:42.411Z,0
2016-05-20T02:21:42.414Z,0
2016-05-20T02:22:42.447Z,0
2016-05-20T02:23:42.451Z,0
2016-05-20T02:24:42.625Z,0
2016-05-20T02:25:42.503Z,0
2016-05-20T02:26:42.506Z,0
2016-05-20T02:27:42.524Z,0
2016-05-20T02:28:42.543Z,0
2016-05-20T02:29:42.404Z,0
2016-05-20T02:30:42.579Z,0
2016-05-20T02:31:42.644Z,0
2016-05-20T02:32:42.615Z,0
2016-05-20T02:33:42.727Z,0
2016-05-20T02:34:42.651Z,0
2016-05-20T02:35:42.732Z,0
2016-05-20T02:36:42.720Z,0
2016-05-20T02:37:42.723Z,0
2016-05-20T02:38:42.616Z,0
2016-05-20T02:39:42.963Z,0
2016-05-20T02:40:42.746Z,0
2016-05-20T02:41:42.562Z,0
2016-05-20T02:42:42.799Z,0
2016-05-20T02:43:42.864Z,0
2016-05-20T02:44:42.836Z,0
2016-05-20T02:45:42.713Z,0
2016-05-20T02:46:42.825Z,0
2016-05-20T02:47:42.859Z,0
2016-05-20T02:48:42.737Z,0
2016-05-20T02:49:42.739Z,0
2016-05-20T02:50:42.914Z,0
2016-05-20T02:51:42.651Z,0
2016-05-20T02:52:42.967Z,0
2016-05-20T02:53:42.813Z,4
2016-05-20T02:54:42.691Z,4
2016-05-20T02:55:43.022Z,0
2016-05-20T02:56:43.024Z,0
2016-05-20T02:57:43.042Z,4
2016-05-20T02:58:43.060Z,4
2016-05-20T02:59:42.938Z,4
2016-05-20T03:00:43.097Z,4
2016-05-20T03:01:43.116Z,4
2016-05-20T03:02:42.994Z,4
2016-05-20T03:03:43.120Z,4
2016-05-20T03:04:43.186Z,8
2016-05-20T03:05:43.032Z,8
2016-05-20T03:06:43.191Z,8
2016-05-20T03:07:43.210Z,8
2016-05-20T03:08:43.243Z,12
2016-05-20T03:09:43.168Z,12
2016-05-20T03:10:43.265Z,12
2016-05-20T03:11:43.283Z,16
2016-05-20T03:12:43.286Z,16
2016-05-20T03:13:43.319Z,20
2016-05-20T03:14:43.181Z,20
2016-05-20T03:15:43.357Z,28
2016-05-20T03:16:43.218Z,32
2016-05-20T03:17:43.392Z,36
2016-05-20T03:18:43.412Z,44
2016-05-20T03:19:43.414Z,48
2016-05-20T03:20:43.432Z,56
2016-05-20T03:21:43.466Z,60
2016-05-20T03:22:43.469Z,68
2016-05-20T03:23:43.486Z,76
2016-05-20T03:24:43.333Z,80
2016-05-20T03:25:43.525Z,88
2016-05-20T03:26:43.557Z,100
2016-05-20T03:27:43.576Z,108
2016-05-20T03:28:43.579Z,120
2016-05-20T03:29:43.582Z,128
2016-05-20T03:30:43.631Z,140
2016-05-20T03:31:43.493Z,152
2016-05-20T03:32:43.652Z,168
2016-05-20T03:33:43.513Z,176
2016-05-20T03:34:43.673Z,192
2016-05-20T03:35:43.691Z,204
2016-05-20T03:36:43.396Z,216
2016-05-20T03:37:43.728Z,228
2016-05-20T03:38:43.606Z,244
2016-05-20T03:39:44.030Z,252
2016-05-20T03:40:43.798Z,264
2016-05-20T03:41:43.489Z,276
2016-05-20T03:42:43.835Z,292
2016-05-20T03:43:43.838Z,304
2016-05-20T03:44:43.856Z,320
2016-05-20T03:45:43.718Z,336
2016-05-20T03:46:43.720Z,356
2016-05-20T03:47:43.786Z,376
2016-05-20T03:48:43.928Z,396
2016-05-20T03:49:43.947Z,416
2016-05-20T03:50:43.966Z,432
2016-05-20T03:51:44.000Z,448
2016-05-20T03:52:43.847Z,468
2016-05-20T03:53:44.006Z,496
2016-05-20T03:54:44.070Z,516
2016-05-20T03:55:44.042Z,544
2016-05-20T03:56:43.920Z,576
2016-05-20T03:57:44.094Z,612
2016-05-20T03:58:44.128Z,656
2016-05-20T03:59:44.115Z,704
2016-05-20T04:00:44.149Z,756
2016-05-20T04:01:43.996Z,808
2016-05-20T04:02:44.171Z,868
2016-05-20T04:03:44.188Z,912
2016-05-20T04:04:44.207Z,960
2016-05-20T04:05:44.257Z,996
2016-05-20T04:06:44.260Z,1036
2016-05-20T04:07:44.262Z,1072
2016-05-20T04:08:44.279Z,1108
2016-05-20T04:09:44.627Z,1144
2016-05-20T04:10:44.160Z,1172
2016-05-20T04:11:44.179Z,1200
2016-05-20T04:12:44.415Z,1232
2016-05-20T04:13:44.356Z,1260
2016-05-20T04:14:44.406Z,1292
2016-05-20T04:15:44.268Z,1340
2016-05-20T04:16:44.271Z,1408
2016-05-20T04:17:44.289Z,1496
2016-05-20T04:18:44.464Z,1588
2016-05-20T04:19:44.482Z,1672
2016-05-20T04:20:44.344Z,1768
2016-05-20T04:21:44.190Z,1904
2016-05-20T04:22:44.520Z,2120
2016-05-20T04:23:44.539Z,2364
2016-05-20T04:24:45.089Z,2592
2016-05-20T04:25:44.591Z,2864
2016-05-20T04:26:44.594Z,3136
2016-05-20T04:27:44.627Z,3276
2016-05-20T04:28:44.630Z,3360
2016-05-20T04:29:44.494Z,3480
2016-05-20T04:30:44.714Z,3576
2016-05-20T04:31:44.686Z,3656
2016-05-20T04:32:44.532Z,3716
2016-05-20T04:33:44.722Z,3744
2016-05-20T04:34:44.725Z,3740
2016-05-20T04:35:44.759Z,3772
2016-05-20T04:36:44.621Z,3828
2016-05-20T04:37:44.779Z,3944
2016-05-20T04:38:44.658Z,3996
2016-05-20T04:39:44.958Z,4060
2016-05-20T04:40:44.710Z,4168
2016-05-20T04:41:44.713Z,4288
2016-05-20T04:42:44.887Z,4416
2016-05-20T04:43:44.734Z,4484
2016-05-20T04:44:44.924Z,4492
2016-05-20T04:45:44.957Z,4488
2016-05-20T04:46:44.804Z,4676
2016-05-20T04:47:44.962Z,4720
2016-05-20T04:48:44.997Z,4736
2016-05-20T04:49:45.015Z,4864
2016-05-20T04:50:45.033Z,4896
2016-05-20T04:51:45.068Z,5080
2016-05-20T04:52:44.914Z,5120
2016-05-20T04:53:45.089Z,5204
2016-05-20T04:54:44.998Z,5312
2016-05-20T04:55:45.156Z,5360
2016-05-20T04:56:45.158Z,5440
2016-05-20T04:57:45.161Z,5496
2016-05-20T04:58:45.164Z,5588
2016-05-20T04:59:44.902Z,5584
2016-05-20T05:00:44.763Z,5576
2016-05-20T05:01:45.251Z,5724
2016-05-20T05:02:45.268Z,5924
2016-05-20T05:03:45.302Z,6052
2016-05-20T05:04:45.291Z,6188
2016-05-20T05:05:45.168Z,6224
2016-05-20T05:06:45.202Z,6380
2016-05-20T05:07:45.360Z,6284
2016-05-20T05:08:45.394Z,6260
2016-05-20T05:09:45.507Z,6268
2016-05-20T05:10:45.431Z,6216
2016-05-20T05:11:45.277Z,6204
2016-05-20T05:12:45.451Z,6348
2016-05-20T05:13:45.470Z,6324
2016-05-20T05:14:45.473Z,6400
2016-05-20T05:15:45.367Z,6528
2016-05-20T05:16:45.541Z,6472
2016-05-20T05:17:45.590Z,6288
2016-05-20T05:18:45.578Z,6208
2016-05-20T05:19:45.596Z,6192
2016-05-20T05:20:45.615Z,6148
2016-05-20T05:21:45.648Z,6144
2016-05-20T05:22:45.650Z,5856
2016-05-20T05:23:45.670Z,5804
2016-05-20T05:24:45.766Z,5584
2016-05-20T05:25:45.752Z,5080
2016-05-20T05:26:45.771Z,5024
2016-05-20T05:27:45.758Z,5392
2016-05-20T05:28:45.620Z,5332
2016-05-20T05:29:45.795Z,5572
2016-05-20T05:30:45.828Z,5592
2016-05-20T05:31:45.878Z,4964
2016-05-20T05:32:45.897Z,4716
2016-05-20T05:33:45.884Z,4544
2016-05-20T05:34:45.964Z,4180
2016-05-20T05:35:45.967Z,3908
2016-05-20T05:36:46.048Z,3836
2016-05-20T05:37:45.785Z,4084
2016-05-20T05:38:46.038Z,4428
2016-05-20T05:39:46.071Z,4532
2016-05-20T05:40:46.075Z,4844
2016-05-20T05:41:46.077Z,5128
2016-05-20T05:42:46.079Z,4272
2016-05-20T05:43:46.021Z,3892
2016-05-20T05:44:45.819Z,3908
2016-05-20T05:45:46.119Z,3912
2016-05-20T05:46:46.137Z,3980
2016-05-20T05:47:46.156Z,4468
2016-05-20T05:48:46.064Z,4344
2016-05-20T05:49:46.177Z,5036
2016-05-20T05:50:46.211Z,5648
2016-05-20T05:51:46.135Z,5600
2016-05-20T05:52:46.247Z,5760
2016-05-20T05:53:46.140Z,6216
2016-05-20T05:54:46.175Z,6296
2016-05-20T05:55:46.302Z,6396
2016-05-20T05:56:46.321Z,6632
2016-05-20T05:57:46.355Z,6452
2016-05-20T05:58:46.371Z,6276
2016-05-20T05:59:46.433Z,6304
2016-05-20T06:00:46.355Z,6076
2016-05-20T06:01:46.575Z,6696
2016-05-20T06:02:46.622Z,6608
2016-05-20T06:03:46.676Z,6416
2016-05-20T06:04:46.742Z,6428
2016-05-20T06:05:46.620Z,6664
2016-05-20T06:06:46.795Z,6604
2016-05-20T06:07:46.877Z,6836
2016-05-20T06:08:46.705Z,5408
2016-05-20T06:09:46.932Z,5064
2016-05-20T06:10:46.924Z,5184
2016-05-20T06:11:46.777Z,6196
2016-05-20T06:12:46.957Z,5776
2016-05-20T06:13:46.839Z,5996
2016-05-20T06:14:46.875Z,5216
2016-05-20T06:15:46.864Z,5048
2016-05-20T06:16:47.072Z,4676
2016-05-20T06:17:46.920Z,5116
2016-05-20T06:18:47.129Z,5352
2016-05-20T06:19:47.115Z,5756
2016-05-20T06:20:47.011Z,5900
2016-05-20T06:21:47.216Z,4888
2016-05-20T06:22:47.221Z,5224
2016-05-20T06:23:47.052Z,6604
2016-05-20T06:24:47.491Z,6716
2016-05-20T06:25:46.948Z,7152
2016-05-20T06:26:47.264Z,7468
2016-05-20T06:27:47.111Z,7196
2016-05-20T06:28:47.317Z,7168
2016-05-20T06:29:47.350Z,7268
2016-05-20T06:30:47.197Z,7136
2016-05-20T06:31:47.372Z,7032
2016-05-20T06:32:47.234Z,6496
2016-05-20T06:33:47.408Z,6528
2016-05-20T06:34:47.442Z,5652
2016-05-20T06:35:47.461Z,5804
2016-05-20T06:36:47.323Z,5792
2016-05-20T06:37:47.341Z,6588
2016-05-20T06:38:47.359Z,5240
2016-05-20T06:39:47.566Z,5136
2016-05-20T06:40:47.552Z,5284
2016-05-20T06:41:47.413Z,5336
2016-05-20T06:42:47.574Z,5448
2016-05-20T06:43:47.466Z,5584
2016-05-20T06:44:47.485Z,6056
2016-05-20T06:45:47.674Z,5996
2016-05-20T06:46:47.662Z,6844
2016-05-20T06:47:47.696Z,7516
2016-05-20T06:48:47.698Z,7340
2016-05-20T06:49:47.717Z,6324
2016-05-20T06:50:47.782Z,5008
2016-05-20T06:51:47.769Z,5076
2016-05-20T06:52:47.787Z,5492
2016-05-20T06:53:47.821Z,5152
2016-05-20T06:54:47.934Z,5984
2016-05-20T06:55:47.843Z,7216
2016-05-20T06:56:47.720Z,7748
2016-05-20T06:57:47.895Z,8092
2016-05-20T06:58:47.882Z,7368
2016-05-20T06:59:47.790Z,8044
2016-05-20T07:00:47.950Z,8204
2016-05-20T07:01:47.984Z,8168
2016-05-20T07:02:48.002Z,8116
2016-05-20T07:03:48.020Z,8180
2016-05-20T07:04:48.038Z,8276
2016-05-20T07:05:47.885Z,8248
2016-05-20T07:06:48.059Z,7476
2016-05-20T07:07:48.078Z,8192
2016-05-20T07:08:48.127Z,6904
2016-05-20T07:09:48.146Z,8176
2016-05-20T07:10:47.992Z,7976
2016-05-20T07:11:48.183Z,7860
2016-05-20T07:12:48.044Z,7672
2016-05-20T07:13:48.203Z,7136
2016-05-20T07:14:48.097Z,6908
2016-05-20T07:15:48.256Z,6976
2016-05-20T07:16:48.274Z,6788
2016-05-20T07:17:48.293Z,7408
2016-05-20T07:18:48.327Z,7584
2016-05-20T07:19:48.329Z,7736
2016-05-20T07:20:48.346Z,7752
2016-05-20T07:21:48.068Z,7908
2016-05-20T07:22:48.243Z,8180
2016-05-20T07:23:48.418Z,8308
2016-05-20T07:24:48.514Z,8340
2016-05-20T07:25:48.314Z,8360
2016-05-20T07:26:48.488Z,8528
2016-05-20T07:27:48.507Z,8612
2016-05-20T07:28:48.368Z,8540
2016-05-20T07:29:48.606Z,8432
2016-05-20T07:30:48.578Z,8428
2016-05-20T07:31:48.440Z,8476
2016-05-20T07:32:48.645Z,8640
2016-05-20T07:33:48.632Z,8744
2016-05-20T07:34:48.526Z,8776
2016-05-20T07:35:48.684Z,8856
2016-05-20T07:36:48.686Z,9152
2016-05-20T07:37:48.721Z,9172
2016-05-20T07:38:48.755Z,9208
2016-05-20T07:39:49.039Z,9316
2016-05-20T07:40:48.775Z,9356
2016-05-20T07:41:48.810Z,9420
2016-05-20T07:42:48.672Z,9656
2016-05-20T07:43:48.831Z,9752
2016-05-20T07:44:48.865Z,9672
2016-05-20T07:45:48.883Z,9648
2016-05-20T07:46:48.886Z,9800
2016-05-20T07:47:48.919Z,9700
2016-05-20T07:48:48.626Z,9964
2016-05-20T07:49:48.957Z,9968
2016-05-20T07:50:48.991Z,9992
2016-05-20T07:51:49.025Z,9544
2016-05-20T07:52:48.886Z,9288
2016-05-20T07:53:49.060Z,9360
2016-05-20T07:54:49.329Z,9608
2016-05-20T07:55:48.910Z,9812
2016-05-20T07:56:49.100Z,10068
2016-05-20T07:57:49.150Z,10404
2016-05-20T07:58:49.168Z,10616
2016-05-20T07:59:50.046Z,10828
2016-05-20T08:00:49.189Z,10884
2016-05-20T08:01:49.223Z,11076
2016-05-20T08:02:49.273Z,10980
2016-05-20T08:03:49.275Z,11108
2016-05-20T08:04:49.278Z,11232
2016-05-20T08:05:49.015Z,11308
2016-05-20T08:06:49.174Z,11344
2016-05-20T08:07:49.442Z,11364
2016-05-20T08:08:49.414Z,11408
2016-05-20T08:09:50.354Z,11528
2016-05-20T08:10:50.278Z,11736
2016-05-20T08:11:49.453Z,11868
2016-05-20T08:12:49.550Z,11384
2016-05-20T08:13:49.474Z,10152
2016-05-20T08:14:49.524Z,9864
2016-05-20T08:15:49.542Z,9836
2016-05-20T08:16:49.545Z,9952
2016-05-20T08:17:55.954Z,10128
2016-05-20T08:18:49.597Z,10292
2016-05-20T08:19:52.615Z,10456
2016-05-20T08:20:54.087Z,10300
2016-05-20T08:21:52.949Z,10812
2016-05-20T08:22:50.310Z,10708
2016-05-20T08:23:49.563Z,10404
2016-05-20T08:24:49.488Z,10836
2016-05-20T08:25:50.554Z,10436
2016-05-20T08:26:49.353Z,10856
2016-05-20T08:27:49.777Z,10900
2016-05-20T08:28:49.670Z,10952
2016-05-20T08:29:49.689Z,10808
2016-05-20T08:30:49.832Z,10840
2016-05-20T08:31:49.866Z,10932
2016-05-20T08:32:49.729Z,10980
2016-05-20T08:33:49.934Z,11112
2016-05-20T08:34:50.359Z,11260
2016-05-20T08:35:49.970Z,10460
2016-05-20T08:36:52.036Z,9948
2016-05-20T08:37:50.008Z,10264
2016-05-20T08:38:50.025Z,9572
2016-05-20T08:39:50.231Z,9088
2016-05-20T08:40:49.906Z,8928
2016-05-20T08:41:50.081Z,8560
2016-05-20T08:42:50.115Z,8536
2016-05-20T08:43:50.133Z,8844
2016-05-20T08:44:50.151Z,8968
2016-05-20T08:45:50.216Z,9184
2016-05-20T08:46:50.922Z,8900
2016-05-20T08:47:50.222Z,8552
2016-05-20T08:48:50.241Z,8112
2016-05-20T08:49:50.274Z,7624
2016-05-20T08:50:50.293Z,7204
2016-05-20T08:51:50.139Z,6964
2016-05-20T08:52:50.329Z,6900
2016-05-20T08:53:50.363Z,6940
2016-05-20T08:54:50.224Z,7008
2016-05-20T08:55:50.385Z,6984
2016-05-20T08:56:50.418Z,6924
2016-05-20T08:57:50.123Z,6812
2016-05-20T08:58:52.268Z,6648
2016-05-20T08:59:50.473Z,6500
2016-05-20T09:00:50.335Z,6428
2016-05-20T09:01:50.493Z,6336
2016-05-20T09:02:50.543Z,6212
2016-05-20T09:03:51.874Z,6192
2016-05-20T09:04:50.549Z,6096
2016-05-20T09:05:50.817Z,5760
2016-05-20T09:06:50.491Z,5500
2016-05-20T09:07:50.667Z,5480
2016-05-20T09:08:52.059Z,5556
2016-05-20T09:09:50.875Z,5684
2016-05-20T09:10:50.847Z,5880
2016-05-20T09:11:50.708Z,6100
2016-05-20T09:12:50.617Z,6160
2016-05-20T09:13:52.167Z,5924
2016-05-20T09:14:50.810Z,5672
2016-05-20T09:15:50.641Z,5540
2016-05-20T09:16:50.847Z,5508
2016-05-20T09:17:50.866Z,5524
2016-05-20T09:18:52.697Z,5572
2016-05-20T09:19:50.761Z,5636
2016-05-20T09:20:50.936Z,5660
2016-05-20T09:21:50.938Z,5616
2016-05-20T09:22:50.800Z,5524
2016-05-20T09:23:52.382Z,5400
2016-05-20T09:24:50.852Z,5280
2016-05-20T09:25:50.887Z,5100
2016-05-20T09:26:50.889Z,4940
2016-05-20T09:27:50.924Z,4772
2016-05-20T09:28:50.941Z,4600
2016-05-20T09:29:51.116Z,4412
2016-05-20T09:30:50.994Z,4260
2016-05-20T09:31:51.043Z,4192
2016-05-20T09:32:50.874Z,4112
2016-05-20T09:33:51.080Z,4012
2016-05-20T09:34:51.239Z,3920
2016-05-20T09:35:51.242Z,3912
2016-05-20T09:36:51.275Z,3896
2016-05-20T09:37:51.309Z,3796
2016-05-20T09:38:51.172Z,3648
2016-05-20T09:39:51.924Z,3508
2016-05-20T09:40:51.536Z,3396
2016-05-20T09:41:51.383Z,3344
2016-05-20T09:42:51.401Z,3396
2016-05-20T09:43:51.404Z,3476
2016-05-20T09:44:51.438Z,3548
2016-05-20T09:45:51.284Z,3632
2016-05-20T09:46:51.458Z,3700
2016-05-20T09:47:51.477Z,3720
2016-05-20T09:48:51.527Z,3704
2016-05-20T09:49:51.514Z,3728
2016-05-20T09:50:51.532Z,3804
2016-05-20T09:51:51.566Z,3956
2016-05-20T09:52:51.600Z,4132
2016-05-20T09:53:52.149Z,4224
2016-05-20T09:54:51.683Z,4268
2016-05-20T09:55:51.654Z,4340
2016-05-20T09:56:51.533Z,4496
2016-05-20T09:57:51.535Z,4692
2016-05-20T09:58:52.865Z,4908
2016-05-20T09:59:51.571Z,4992
2016-05-20T10:00:51.762Z,5016
2016-05-20T10:01:51.468Z,5120
2016-05-20T10:02:51.768Z,5268
2016-05-20T10:03:55.035Z,5564
2016-05-20T10:04:51.851Z,5960
2016-05-20T10:05:51.854Z,6424
2016-05-20T10:06:51.873Z,6876
2016-05-20T10:08:23.140Z,7576
2016-05-20T10:08:53.721Z,7872
2016-05-20T10:09:52.411Z,8444
2016-05-20T10:10:51.976Z,8792
2016-05-20T10:11:51.995Z,8732
2016-05-20T10:12:51.997Z,8560
2016-05-20T10:13:52.812Z,8632
2016-05-20T10:14:51.878Z,8988
2016-05-20T10:15:52.083Z,9472
2016-05-20T10:16:52.086Z,9684
2016-05-20T10:17:52.152Z,9380
2016-05-20T10:18:53.388Z,8740
2016-05-20T10:19:52.157Z,7924
2016-05-20T10:20:52.222Z,7240
2016-05-20T10:21:52.021Z,6940
2016-05-20T10:22:52.227Z,6840
2016-05-20T10:23:53.152Z,6772
2016-05-20T10:24:52.124Z,6560
2016-05-20T10:25:51.844Z,6216
2016-05-20T10:26:52.316Z,5976
2016-05-20T10:27:52.318Z,5716
2016-05-20T10:28:53.540Z,5520
2016-05-20T10:29:52.371Z,5428
2016-05-20T10:30:52.437Z,5436
2016-05-20T10:31:52.345Z,5596
2016-05-20T10:32:52.285Z,5768
2016-05-20T10:33:52.866Z,5700
2016-05-20T10:34:52.635Z,5432
2016-05-20T10:35:52.340Z,5104
2016-05-20T10:36:52.578Z,4816
2016-05-20T10:37:52.534Z,4540
2016-05-20T10:38:53.239Z,4288
2016-05-20T10:39:52.664Z,4140
2016-05-20T10:40:52.620Z,4084
2016-05-20T10:41:52.450Z,4124
2016-05-20T10:42:52.470Z,4248
2016-05-20T10:43:53.111Z,4448
2016-05-20T10:44:52.693Z,4656
2016-05-20T10:45:52.696Z,4880
2016-05-20T10:46:52.745Z,5224
2016-05-20T10:47:52.748Z,5700
2016-05-20T10:48:53.407Z,6308
2016-05-20T10:49:52.628Z,6788
2016-05-20T10:50:52.818Z,7052
2016-05-20T10:51:52.853Z,7204
2016-05-20T10:52:52.855Z,7312
2016-05-20T10:53:55.405Z,7348
2016-05-20T10:54:53.282Z,7256
2016-05-20T10:55:52.941Z,7076
2016-05-20T10:56:52.803Z,7060
2016-05-20T10:57:52.963Z,7112
2016-05-20T10:58:52.841Z,7164
2016-05-20T10:59:52.998Z,7188
2016-05-20T11:00:53.001Z,7200
2016-05-20T11:01:53.035Z,7312
2016-05-20T11:02:53.054Z,7440
2016-05-20T11:03:53.088Z,7500
2016-05-20T11:04:53.090Z,7708
2016-05-20T11:05:52.984Z,7928
2016-05-20T11:06:52.971Z,8020
2016-05-20T11:07:53.036Z,8112
2016-05-20T11:08:53.085Z,8360
2016-05-20T11:09:53.198Z,8812
2016-05-20T11:10:53.310Z,9108
2016-05-20T11:11:53.329Z,9500
2016-05-20T11:12:53.268Z,10244
2016-05-20T11:13:53.130Z,10768
2016-05-20T11:14:53.180Z,11124
2016-05-20T11:15:53.183Z,11428
2016-05-20T11:16:53.357Z,11612
2016-05-20T11:17:53.406Z,11752
2016-05-20T11:18:53.394Z,11976
2016-05-20T11:19:53.444Z,12216
2016-05-20T11:20:53.461Z,12432
2016-05-20T11:21:53.308Z,12568
2016-05-20T11:22:53.529Z,12704
2016-05-20T11:23:53.516Z,12924
2016-05-20T11:24:53.566Z,13352
2016-05-20T11:25:53.585Z,13844
2016-05-20T11:26:53.571Z,13712
2016-05-20T11:27:53.668Z,13844
2016-05-20T11:28:53.655Z,14256
2016-05-20T11:29:53.658Z,14372
2016-05-20T11:30:53.661Z,15180
2016-05-20T11:31:53.710Z,15344
2016-05-20T11:32:53.557Z,15004
2016-05-20T11:33:53.746Z,14936
2016-05-20T11:34:53.624Z,14680
2016-05-20T11:35:53.783Z,15060
2016-05-20T11:36:53.660Z,16076
2016-05-20T11:37:53.835Z,16256
2016-05-20T11:38:53.900Z,13992
2016-05-20T11:39:53.965Z,13872
2016-05-20T11:40:53.906Z,12924
2016-05-20T11:41:53.924Z,13608
2016-05-20T11:42:53.926Z,12336
2016-05-20T11:43:53.977Z,10336
2016-05-20T11:44:53.979Z,8724
2016-05-20T11:45:54.013Z,7696
2016-05-20T11:46:54.031Z,6876
2016-05-20T11:47:54.050Z,6444
2016-05-20T11:48:53.928Z,5824
2016-05-20T11:49:54.102Z,5384
2016-05-20T11:50:54.121Z,5456
2016-05-20T11:51:53.982Z,5916
2016-05-20T11:52:54.172Z,6640
2016-05-20T11:53:54.206Z,7160
2016-05-20T11:54:54.803Z,7156
2016-05-20T11:55:54.087Z,6948
2016-05-20T11:57:44.749Z,6692
2016-05-20T11:57:57.608Z,6720
2016-05-20T11:58:57.627Z,7172
2016-05-20T11:59:57.676Z,7828
2016-05-20T12:00:57.694Z,8112
2016-05-20T12:01:57.697Z,8012
2016-05-20T12:02:57.574Z,7852
2016-05-20T12:03:57.749Z,7508
2016-05-20T12:04:57.690Z,6880
2016-05-20T12:05:57.801Z,6336
2016-05-20T12:06:57.804Z,5828
2016-05-20T12:07:57.837Z,5524
2016-05-20T12:08:57.872Z,5632
2016-05-20T12:09:58.437Z,6032
2016-05-20T12:10:57.909Z,6404
2016-05-20T12:11:57.927Z,6808
2016-05-20T12:12:57.962Z,7192
2016-05-20T12:13:57.964Z,7420
2016-05-20T12:14:58.012Z,7480
2016-05-20T12:15:58.000Z,7244
2016-05-20T12:16:58.050Z,7104
2016-05-20T12:17:58.068Z,7284
2016-05-20T12:18:58.086Z,7552
2016-05-20T12:19:58.105Z,7880
2016-05-20T12:20:58.122Z,8256
2016-05-20T12:21:58.141Z,8216
2016-05-20T12:22:57.863Z,8016
2016-05-20T12:23:58.209Z,7980
2016-05-20T12:24:58.603Z,8568
2016-05-20T12:25:58.542Z,9632
2016-05-20T12:26:58.295Z,10764
2016-05-20T12:27:58.283Z,11072
2016-05-20T12:28:58.300Z,11244
2016-05-20T12:29:58.163Z,11668
2016-05-20T12:30:58.197Z,12000
2016-05-20T12:31:58.199Z,11456
2016-05-20T12:32:58.390Z,11176
2016-05-20T12:33:58.424Z,10912
2016-05-20T12:34:58.427Z,10384
2016-05-20T12:35:58.491Z,9528
2016-05-20T12:36:58.494Z,8596
2016-05-20T12:37:58.496Z,7908
2016-05-20T12:38:58.532Z,7692
2016-05-20T12:39:58.549Z,7816
2016-05-20T12:40:58.582Z,8160
2016-05-20T12:41:58.430Z,8476
2016-05-20T12:42:58.151Z,8480
2016-05-20T12:43:58.654Z,8300
2016-05-20T12:44:58.672Z,8312
2016-05-20T12:45:58.675Z,8400
2016-05-20T12:46:58.723Z,8492
2016-05-20T12:47:58.742Z,8524
2016-05-20T12:48:58.745Z,8520
2016-05-20T12:50:01.811Z,8368
2016-05-20T12:50:58.845Z,8164
2016-05-20T12:52:05.128Z,7852
2016-05-20T12:52:58.850Z,7516
2016-05-20T12:54:11.587Z,7116
2016-05-20T12:54:58.903Z,6864
2016-05-20T12:56:18.122Z,6952
2016-05-20T12:56:58.954Z,7164
2016-05-20T12:57:59.036Z,7252
2016-05-20T12:58:58.866Z,7200
2016-05-20T12:59:58.884Z,7096
2016-05-20T13:00:59.121Z,7016
2016-05-20T13:01:59.108Z,7004
2016-05-20T13:02:59.142Z,7168
2016-05-20T13:03:58.958Z,7596
2016-05-20T13:04:59.147Z,7992
2016-05-20T13:05:59.040Z,8068
2016-05-20T13:06:58.997Z,7804
2016-05-20T13:07:58.890Z,7300
2016-05-20T13:08:59.220Z,6824
2016-05-20T13:09:59.318Z,6224
2016-05-20T13:10:59.132Z,5816
2016-05-20T13:11:59.276Z,5724
2016-05-20T13:12:59.169Z,6196
2016-05-20T13:13:59.296Z,7056
2016-05-20T13:14:59.331Z,8024
2016-05-20T13:15:59.349Z,8860
2016-05-20T13:16:59.226Z,9320
2016-05-20T13:17:59.245Z,9588
2016-05-20T13:19:00.154Z,9876
2016-05-20T13:19:59.423Z,9944
2016-05-20T13:20:59.300Z,9540
2016-05-20T13:21:59.474Z,9120
2016-05-20T13:22:59.493Z,8892
2016-05-20T13:23:59.511Z,8916
2016-05-20T13:24:59.622Z,9084
2016-05-20T13:25:59.876Z,9068
2016-05-20T13:26:59.597Z,9028
2016-05-20T13:27:59.631Z,8860
2016-05-20T13:28:59.478Z,8736
2016-05-20T13:29:59.652Z,8844
2016-05-20T13:30:59.530Z,9016
2016-05-20T13:31:59.705Z,9280
2016-05-20T13:32:59.722Z,9780
2016-05-20T13:33:59.757Z,9048
2016-05-20T13:34:59.619Z,8480
2016-05-20T13:35:59.778Z,8136
2016-05-20T13:36:59.796Z,7820
2016-05-20T13:37:59.829Z,7608